Archival Weather

Chicago O'Hare International

Chicago, Illinois (KORD)

Report from: Wednesday, September 6, 2023 4:46 AM CDT
Current time: Wednesday, May 29, 2024 7:53 PM CDT

Current weather – Weather history – Daily summaries
Weather forecast

Present weatherThunderstorm with rain, mist
Temperature25.0°C (77.0°F)
Dew point23.0°C (73.4°F)
Winds 6 kts (3.1 m/s, 6.9 mph) South-Southwest (200°)
Visibility3 mi. (4.8 km)
Clouds Ceiling: Broken clouds with cumulonimbus 1,200 ft. (366 m)
Overcast 2,000 ft. (610 m)
Altimeter29.76 in.Hg (1008 mB)
PrecipitiationTrace
Precip. events Rain began 9:42 AM
Thunderstorm began 9:37 AM
Relative humidity89 %
Density altitude1,719 ft. (524 m)
Remarks Automated weather observing station with precipitation discriminator
Lightning observed
Lightning observed: intra cloud, cloud to ground
Distant north and south and southwest occasional southwest thunderstorm southwest moving northeast
Flight conditions Marginal Visual Meteorological Conditions
Raw dataKORD 060946Z 20006KT 3SM TSRA BR BKN012CB OVC020 25/23 A2976 RMK AO2 LTG DSNT N AND S AND SW RAB42 TSB37 OCNL LTGICCG SW TS SW MOV NE P0000
An error has occurred. This application may no longer respond until reloaded. Reload 🗙